Time;durP1;ratioP1;P1;durP2;ratioP2;P2;SDS_P1;SDS_P2;PMS_P1;PMS_P2;Temp;Humidity;BMP_temperature;BMP_pressure;BME280_temperature;BME280_humidity;BME280_pressure;Samples;Min_cycle;Max_cycle;Signal;HPM_P1;HPM_P2
2022/01/24 00:16:56;;;;;;;;;;;2.70;99.90;;;;;;5998561;23;19945;-80
2022/01/24 02:24:40;;;;;;;;;;;2.30;99.90;;;;;;4761777;26;19925;-81
2022/01/24 03:28:18;;;;;;;;;;;2.10;99.90;;;;;;4818933;26;19977;-88
2022/01/24 04:06:29;;;;;;;;;;;2.00;99.90;;;;;;4960550;28;19966;-85
2022/01/24 04:12:12;;;;;;;;;;;2.00;99.90;;;;;;1478679;26;19945;-87
2022/01/24 04:23:40;;;;;;;;;;;2.00;99.90;;;;;;4926889;29;19922;-90
2022/01/24 04:37:03;;;;;;;;;;;2.00;99.90;;;;;;5323625;23;19954;-88
2022/01/24 04:39:36;;;;;;;;;;;2.00;99.90;;;;;;4973345;28;19945;-89
2022/01/24 09:39:48;;;;;;;;;;;1.60;99.90;;;;;;5758683;23;19948;-83
2022/01/24 16:58:48;;;;;;;;;;;2.90;99.90;;;;;;4978393;28;19917;-82
2022/01/24 17:09:18;;;;;;;;;;;2.80;99.90;;;;;;4950041;29;20023;-83
2022/01/24 17:14:31;;;;;;;;;;;2.70;99.90;;;;;;4928921;29;19927;-82
2022/01/24 17:17:01;;;;;;;;;;;2.70;99.90;;;;;;4938166;29;19927;-83
2022/01/24 17:19:31;;;;;;;;;;;2.70;99.90;;;;;;4945748;29;19933;-82
2022/01/24 17:22:03;;;;;;;;;;;2.70;99.90;;;;;;4937565;29;20017;-83
2022/01/24 17:24:31;;;;;;;;;;;2.70;99.90;;;;;;4942616;29;19927;-83
2022/01/24 17:27:03;;;;;;;;;;;2.70;99.90;;;;;;4950413;29;19990;-83
2022/01/24 17:29:50;;;;;;;;;;;2.70;99.90;;;;;;4949269;29;19927;-83
2022/01/24 17:32:24;;;;;;;;;;;2.60;99.90;;;;;;4950537;29;20017;-83
2022/01/24 17:35:00;;;;;;;;;;;2.60;99.90;;;;;;4944123;29;19973;-83
2022/01/24 17:37:29;;;;;;;;;;;2.60;99.90;;;;;;4950129;29;19934;-82
2022/01/24 17:40:24;;;;;;;;;;;2.60;99.90;;;;;;4952317;29;19933;-83
2022/01/24 17:43:01;;;;;;;;;;;2.60;99.90;;;;;;4926027;29;19927;-83
2022/01/24 17:45:31;;;;;;;;;;;2.60;99.90;;;;;;4949997;29;19986;-82
2022/01/24 17:48:26;;;;;;;;;;;2.60;99.90;;;;;;4942887;29;19926;-83
2022/01/24 17:50:55;;;;;;;;;;;2.60;99.90;;;;;;4942625;29;19934;-82
2022/01/24 17:53:24;;;;;;;;;;;2.60;99.90;;;;;;4927823;29;19942;-82
2022/01/24 17:58:40;;;;;;;;;;;2.50;99.90;;;;;;5117145;23;20373;-82
2022/01/24 18:04:05;;;;;;;;;;;2.50;99.90;;;;;;4960567;28;20448;-83
2022/01/24 18:06:35;;;;;;;;;;;2.60;99.90;;;;;;4944092;29;19938;-83
2022/01/24 18:09:07;;;;;;;;;;;2.50;99.90;;;;;;4950231;29;19962;-82
2022/01/24 18:11:41;;;;;;;;;;;2.50;99.90;;;;;;4959336;28;19937;-82
2022/01/24 18:14:11;;;;;;;;;;;2.50;99.90;;;;;;4964544;28;20472;-83
2022/01/24 18:16:43;;;;;;;;;;;2.50;99.90;;;;;;4968163;28;19927;-84
2022/01/24 18:19:12;;;;;;;;;;;2.50;99.90;;;;;;4968973;28;19926;-83
2022/01/24 18:21:40;;;;;;;;;;;2.50;99.90;;;;;;4965337;28;19931;-82
2022/01/24 18:24:16;;;;;;;;;;;2.50;99.90;;;;;;4978061;28;19926;-82
2022/01/24 18:26:46;;;;;;;;;;;2.40;99.90;;;;;;4968703;28;19926;-83
2022/01/24 18:29:15;;;;;;;;;;;2.40;99.90;;;;;;4968302;28;19927;-83
2022/01/24 18:31:44;;;;;;;;;;;2.50;99.90;;;;;;4968059;28;19926;-82
2022/01/24 18:34:15;;;;;;;;;;;2.40;99.90;;;;;;4965984;28;19989;-84
2022/01/24 18:36:44;;;;;;;;;;;2.40;99.90;;;;;;4962898;28;19937;-83
2022/01/24 18:39:12;;;;;;;;;;;2.40;99.90;;;;;;4965456;28;19926;-82
2022/01/24 18:41:42;;;;;;;;;;;2.30;99.90;;;;;;4969858;28;19927;-82
2022/01/24 18:44:11;;;;;;;;;;;2.40;99.90;;;;;;4954942;28;19932;-84
2022/01/24 18:46:39;;;;;;;;;;;2.30;99.90;;;;;;4944174;29;19938;-82
2022/01/24 18:49:10;;;;;;;;;;;2.40;99.90;;;;;;4968996;29;19966;-83
2022/01/24 18:51:40;;;;;;;;;;;2.40;99.90;;;;;;4961821;28;19931;-83
2022/01/24 18:54:09;;;;;;;;;;;2.40;99.90;;;;;;4963375;28;19927;-82
2022/01/24 18:56:36;;;;;;;;;;;2.30;99.90;;;;;;4971197;28;20021;-81
2022/01/24 18:59:04;;;;;;;;;;;2.30;99.90;;;;;;4968761;28;19989;-82
2022/01/24 19:01:31;;;;;;;;;;;2.30;99.90;;;;;;4963786;28;19926;-81
2022/01/24 19:04:00;;;;;;;;;;;2.30;99.90;;;;;;4953358;28;19962;-83
2022/01/24 19:09:23;;;;;;;;;;;2.30;99.90;;;;;;4967876;28;19927;-82
2022/01/24 19:11:56;;;;;;;;;;;2.30;99.90;;;;;;4946287;28;20456;-81
2022/01/24 19:14:32;;;;;;;;;;;2.30;99.90;;;;;;4950918;28;19990;-83
2022/01/24 19:17:14;;;;;;;;;;;2.30;99.90;;;;;;4970098;28;19949;-81
2022/01/24 19:19:59;;;;;;;;;;;2.30;99.90;;;;;;4971968;28;20411;-82
2022/01/24 19:58:42;;;;;;;;;;;2.10;99.90;;;;;;6092268;23;19944;31
